Time;durP1;ratioP1;P1;durP2;ratioP2;P2;SDS_P1;SDS_P2;PMS_P1;PMS_P2;Temp;Humidity;BMP_temperature;BMP_pressure;BME280_temperature;BME280_humidity;BME280_pressure;Samples;Min_cycle;Max_cycle;Signal;HPM_P1;HPM_P2
2023/09/26 00:01:03;;;;;;;;;;;;;;;21.73;29.22;98198.72;5074247;28;1022;-77
2023/09/26 00:03:29;;;;;;;;;;;;;;;21.73;29.54;98198.72;5074217;28;925;-77
2023/09/26 00:05:55;;;;;;;;;;;;;;;21.97;28.94;98190.06;5057033;28;2283;-77
2023/09/26 00:08:20;;;;;;;;;;;;;;;21.85;28.91;98189.50;5073821;28;946;-77
2023/09/26 00:10:46;;;;;;;;;;;;;;;21.87;29.00;98191.13;5073606;28;928;-77
2023/09/26 00:13:12;;;;;;;;;;;;;;;21.96;28.74;98189.25;5074103;28;1156;-77
2023/09/26 00:15:38;;;;;;;;;;;;;;;21.66;29.45;98190.41;5056989;28;1071;-77
2023/09/26 00:18:03;;;;;;;;;;;;;;;21.71;29.48;98186.22;5042059;28;1024;-77
2023/09/26 00:20:30;;;;;;;;;;;;;;;21.95;28.98;98192.53;5037107;28;1079;-77
2023/09/26 00:22:56;;;;;;;;;;;;;;;21.98;28.70;98192.44;5037541;28;940;-77
2023/09/26 00:25:22;;;;;;;;;;;;;;;21.85;28.97;98192.34;5037095;28;1139;-77
2023/09/26 00:27:48;;;;;;;;;;;;;;;21.68;29.36;98201.28;5037195;28;1898;-77
2023/09/26 00:30:14;;;;;;;;;;;;;;;21.92;28.87;98193.44;5037166;28;1001;-77
2023/09/26 00:32:40;;;;;;;;;;;;;;;22.26;28.34;98202.28;5036785;28;1188;-77
2023/09/26 00:35:08;;;;;;;;;;;;;;;22.06;28.65;98198.72;5020659;28;1213;-77
2023/09/26 00:37:34;;;;;;;;;;;;;;;22.01;28.57;98199.25;5037163;28;1013;-77
2023/09/26 00:39:59;;;;;;;;;;;;;;;21.79;28.96;98196.94;5036713;28;1006;-77
2023/09/26 00:42:26;;;;;;;;;;;;;;;21.82;28.99;98196.09;5020695;28;1395;-77
2023/09/26 00:44:52;;;;;;;;;;;;;;;22.10;28.39;98194.59;5036663;28;1285;-77
2023/09/26 00:47:17;;;;;;;;;;;;;;;22.05;28.64;98197.13;5036700;28;1902;-77
2023/09/26 00:49:43;;;;;;;;;;;;;;;21.97;28.77;98199.38;5020168;28;1038;-77
2023/09/26 00:52:08;;;;;;;;;;;;;;;22.07;28.28;98191.81;5020037;28;1243;-77
2023/09/26 00:54:34;;;;;;;;;;;;;;;21.79;28.97;98199.00;5053057;28;1090;-77
2023/09/26 00:56:59;;;;;;;;;;;;;;;21.91;28.80;98197.47;5004183;28;1154;-77
2023/09/26 00:59:25;;;;;;;;;;;;;;;21.90;28.81;98202.34;5022126;28;1109;-77
2023/09/26 01:01:51;;;;;;;;;;;;;;;21.69;29.14;98198.00;5057744;28;1112;-77
2023/09/26 01:04:16;;;;;;;;;;;;;;;21.85;28.81;98200.84;5059088;28;922;-77
2023/09/26 01:06:43;;;;;;;;;;;;;;;21.97;28.59;98198.56;5059723;28;1901;-77
2023/09/26 01:09:10;;;;;;;;;;;;;;;21.94;28.41;98207.94;5091590;28;928;-77
2023/09/26 01:11:36;;;;;;;;;;;;;;;21.89;28.36;98202.81;5058215;28;1267;-77
2023/09/26 01:14:01;;;;;;;;;;;;;;;21.89;28.64;98205.63;5075259;28;1204;-77
2023/09/26 01:16:27;;;;;;;;;;;;;;;21.79;28.83;98201.81;5074994;28;1150;-77
2023/09/26 01:18:53;;;;;;;;;;;;;;;21.97;28.37;98207.06;5075177;28;1198;-77
2023/09/26 01:21:18;;;;;;;;;;;;;;;21.88;28.50;98206.88;5041608;28;1415;-77
2023/09/26 01:23:45;;;;;;;;;;;;;;;21.99;28.51;98204.56;5091445;28;1235;-77
2023/09/26 01:26:10;;;;;;;;;;;;;;;21.83;28.76;98197.66;5090418;28;1981;-77
2023/09/26 01:28:36;;;;;;;;;;;;;;;21.94;28.65;98191.72;5058719;28;905;-77
2023/09/26 01:31:01;;;;;;;;;;;;;;;21.87;28.65;98200.41;5079959;28;1275;-76
2023/09/26 01:33:27;;;;;;;;;;;;;;;21.90;28.69;98195.91;5080369;28;986;-77
2023/09/26 01:35:52;;;;;;;;;;;;;;;21.89;28.80;98194.31;5080798;28;966;-77
2023/09/26 01:38:19;;;;;;;;;;;;;;;21.87;28.72;98202.47;5079827;28;1206;-77
2023/09/26 01:40:47;;;;;;;;;;;;;;;22.09;28.32;98203.50;5063563;28;1077;-77
2023/09/26 01:43:13;;;;;;;;;;;;;;;21.88;28.90;98192.72;5063425;28;1059;-77
2023/09/26 01:45:38;;;;;;;;;;;;;;;21.87;28.84;98196.78;5062979;28;1216;-77
2023/09/26 01:48:09;;;;;;;;;;;;;;;21.76;29.02;98197.03;5079945;28;1981;-77
2023/09/26 01:50:35;;;;;;;;;;;;;;;21.52;29.48;98194.38;5060552;28;1130;-77
2023/09/26 01:53:01;;;;;;;;;;;;;;;21.78;29.08;98189.69;5059781;28;1611;-77
2023/09/26 01:55:26;;;;;;;;;;;;;;;21.90;28.86;98190.22;5059770;28;1113;-77
2023/09/26 01:57:52;;;;;;;;;;;;;;;21.81;28.76;98193.66;5059463;28;911;-77
2023/09/26 02:00:19;;;;;;;;;;;;;;;21.77;29.09;98204.31;5043272;28;1280;-77
2023/09/26 02:02:45;;;;;;;;;;;;;;;21.92;28.61;98204.75;5007016;28;1168;-77
2023/09/26 02:05:12;;;;;;;;;;;;;;;21.68;28.97;98202.06;5003364;28;1150;-77
2023/09/26 02:07:37;;;;;;;;;;;;;;;21.89;28.84;98205.63;5016313;28;1979;-77
2023/09/26 02:10:05;;;;;;;;;;;;;;;21.85;28.77;98195.19;5015625;28;1098;-77
2023/09/26 02:12:35;;;;;;;;;;;;;;;22.10;28.28;98202.25;5015975;28;928;-77
2023/09/26 02:15:03;;;;;;;;;;;;;;;21.74;29.20;98197.47;5000179;28;1123;-77
2023/09/26 02:17:29;;;;;;;;;;;;;;;21.66;29.15;98207.41;5000084;28;1242;-77
2023/09/26 02:19:54;;;;;;;;;;;;;;;21.80;29.15;98209.06;5016328;28;1012;-77
2023/09/26 02:22:20;;;;;;;;;;;;;;;21.65;29.36;98208.63;5016234;28;1211;-77
2023/09/26 02:24:46;;;;;;;;;;;;;;;21.95;28.95;98213.16;5032629;28;1287;-77
2023/09/26 02:27:12;;;;;;;;;;;;;;;21.82;29.17;98218.75;5019416;28;1906;-77
2023/09/26 02:29:37;;;;;;;;;;;;;;;21.86;29.16;98207.31;5015788;28;1067;-77
2023/09/26 02:32:04;;;;;;;;;;;;;;;21.62;29.35;98215.19;4983490;28;1226;-77
2023/09/26 02:34:29;;;;;;;;;;;;;;;21.58;29.48;98214.44;5015497;28;1627;-77
2023/09/26 02:36:55;;;;;;;;;;;;;;;22.04;28.59;98206.88;5035536;28;889;-77
2023/09/26 02:39:21;;;;;;;;;;;;;;;22.14;28.47;98205.84;5019058;28;1182;-77
2023/09/26 02:41:47;;;;;;;;;;;;;;;22.15;28.51;98213.09;5035784;28;1033;-77
2023/09/26 02:44:12;;;;;;;;;;;;;;;21.86;28.77;98212.97;5019062;28;1009;-77
2023/09/26 02:46:38;;;;;;;;;;;;;;;21.94;28.92;98207.94;5052007;28;1960;-77
2023/09/26 02:49:03;;;;;;;;;;;;;;;21.87;28.67;98210.97;5052275;28;948;-77
2023/09/26 02:51:30;;;;;;;;;;;;;;;21.57;29.40;98212.88;5019112;28;1066;-77
2023/09/26 02:53:56;;;;;;;;;;;;;;;21.67;28.92;98211.03;5035673;28;1141;-77
2023/09/26 02:56:21;;;;;;;;;;;;;;;21.73;29.13;98207.22;5055073;28;1010;-77
2023/09/26 02:58:48;;;;;;;;;;;;;;;21.84;28.70;98210.59;5038485;28;1123;-77
2023/09/26 03:01:16;;;;;;;;;;;;;;;21.64;29.32;98212.69;5068744;28;922;-77
2023/09/26 03:03:42;;;;;;;;;;;;;;;21.65;29.16;98219.16;5078640;28;917;-77
2023/09/26 03:06:07;;;;;;;;;;;;;;;21.70;28.96;98210.91;5061742;28;1902;-77
2023/09/26 03:08:33;;;;;;;;;;;;;;;21.63;29.06;98216.75;5078431;28;1454;-77
2023/09/26 03:10:59;;;;;;;;;;;;;;;21.84;28.98;98221.91;5078202;28;920;-76
2023/09/26 03:13:24;;;;;;;;;;;;;;;21.80;28.87;98221.19;5078666;28;982;-77
2023/09/26 03:15:55;;;;;;;;;;;;;;;21.99;28.76;98221.56;5061644;28;1603;-77
2023/09/26 03:18:21;;;;;;;;;;;;;;;21.92;28.74;98224.59;5045032;28;1143;-77
2023/09/26 03:20:46;;;;;;;;;;;;;;;21.72;29.15;98225.44;5061627;28;1445;-77
2023/09/26 03:23:12;;;;;;;;;;;;;;;21.90;28.73;98232.72;5061502;28;1221;-77
2023/09/26 03:25:38;;;;;;;;;;;;;;;21.93;28.79;98229.03;5041123;28;1252;-77
2023/09/26 03:28:04;;;;;;;;;;;;;;;21.83;28.73;98231.66;5042178;28;1917;-77
2023/09/26 03:30:29;;;;;;;;;;;;;;;21.58;29.25;98242.78;5034497;28;1220;-77
2023/09/26 03:32:55;;;;;;;;;;;;;;;21.66;29.04;98240.56;5034832;28;971;-77
2023/09/26 03:35:21;;;;;;;;;;;;;;;21.88;28.66;98243.72;5001587;28;1906;-77
2023/09/26 03:37:46;;;;;;;;;;;;;;;21.82;28.90;98244.22;5049110;28;1632;-77
2023/09/26 03:40:13;;;;;;;;;;;;;;;21.89;28.89;98239.63;5018489;28;1236;-77
2023/09/26 03:42:38;;;;;;;;;;;;;;;21.79;28.94;98239.44;5034439;28;1016;-77
2023/09/26 03:45:04;;;;;;;;;;;;;;;21.81;29.16;98239.81;5034722;28;1014;-77
2023/09/26 03:47:30;;;;;;;;;;;;;;;21.89;29.24;98239.63;5034298;28;1978;-77
2023/09/26 03:49:55;;;;;;;;;;;;;;;21.95;29.00;98237.84;5018089;28;1324;-77
2023/09/26 03:52:21;;;;;;;;;;;;;;;21.67;29.31;98242.97;5036047;28;1516;-77
2023/09/26 03:54:46;;;;;;;;;;;;;;;22.12;28.65;98236.66;5046096;28;1503;-77
2023/09/26 03:57:12;;;;;;;;;;;;;;;22.06;28.88;98244.06;5054202;28;1293;-77
2023/09/26 03:59:37;;;;;;;;;;;;;;;21.99;29.17;98247.06;5037670;28;1027;-77
2023/09/26 04:02:03;;;;;;;;;;;;;;;21.84;29.20;98244.56;5037359;28;1059;-77
2023/09/26 04:04:31;;;;;;;;;;;;;;;21.91;29.22;98249.28;5037529;28;983;-77
2023/09/26 04:06:57;;;;;;;;;;;;;;;21.78;29.24;98252.00;5055789;28;1898;-77
2023/09/26 04:09:22;;;;;;;;;;;;;;;21.67;29.62;98251.47;5073211;28;1335;-77
2023/09/26 04:11:48;;;;;;;;;;;;;;;21.77;29.60;98250.41;5057453;28;1156;-77
2023/09/26 04:14:14;;;;;;;;;;;;;;;21.78;29.46;98252.00;5057170;28;1051;-77
2023/09/26 04:16:39;;;;;;;;;;;;;;;22.04;28.78;98257.88;5058166;28;1454;-77
2023/09/26 04:19:05;;;;;;;;;;;;;;;21.72;29.29;98259.44;5055651;28;1516;-77
2023/09/26 04:21:31;;;;;;;;;;;;;;;21.79;29.21;98270.59;5054946;28;1164;-77
2023/09/26 04:23:59;;;;;;;;;;;;;;;21.93;28.89;98263.00;5054745;28;941;-76
2023/09/26 04:26:25;;;;;;;;;;;;;;;21.98;28.81;98265.31;5070972;28;1965;-77
2023/09/26 04:28:50;;;;;;;;;;;;;;;21.91;28.89;98259.81;5054706;28;1236;-77
2023/09/26 04:31:16;;;;;;;;;;;;;;;21.89;28.91;98268.75;5055022;28;950;-77
2023/09/26 04:33:42;;;;;;;;;;;;;;;21.71;29.28;98266.34;5087371;28;1388;-77
2023/09/26 04:36:08;;;;;;;;;;;;;;;21.82;29.29;98275.41;5038748;28;996;-77
2023/09/26 04:38:33;;;;;;;;;;;;;;;21.82;29.40;98269.72;5054568;28;971;-77
2023/09/26 04:41:02;;;;;;;;;;;;;;;21.93;29.28;98277.19;5054887;28;1000;-77
2023/09/26 04:43:28;;;;;;;;;;;;;;;21.87;29.22;98276.91;5055553;28;1027;-77
2023/09/26 04:45:54;;;;;;;;;;;;;;;21.87;29.51;98276.13;5037995;28;965;-77
2023/09/26 04:48:19;;;;;;;;;;;;;;;21.55;29.66;98281.28;5036506;28;1971;-77
2023/09/26 04:50:45;;;;;;;;;;;;;;;21.66;29.90;98278.19;5053676;28;1225;-77
2023/09/26 04:53:10;;;;;;;;;;;;;;;21.75;29.48;98275.53;5020319;28;1211;-77
2023/09/26 04:55:36;;;;;;;;;;;;;;;21.78;29.53;98277.50;5053642;28;970;-77
2023/09/26 04:58:02;;;;;;;;;;;;;;;21.56;30.07;98279.22;5020158;28;1348;-77
2023/09/26 05:00:28;;;;;;;;;;;;;;;21.86;29.77;98280.94;5036919;28;1012;-77
2023/09/26 05:02:53;;;;;;;;;;;;;;;21.73;29.81;98282.91;5019623;28;1336;-77
2023/09/26 05:05:19;;;;;;;;;;;;;;;21.84;29.78;98272.91;5037758;28;1510;-77
2023/09/26 05:07:45;;;;;;;;;;;;;;;21.62;30.11;98283.13;5047426;28;1902;-77
2023/09/26 05:10:11;;;;;;;;;;;;;;;21.94;29.69;98278.78;5036989;28;1131;-77
2023/09/26 05:12:40;;;;;;;;;;;;;;;21.94;29.81;98278.78;5036797;28;1230;-77
2023/09/26 05:15:12;;;;;;;;;;;;;;;21.75;30.20;98289.69;5036922;28;889;-77
2023/09/26 05:17:50;;;;;;;;;;;;;;;21.66;30.44;98289.53;5053167;28;979;-77
2023/09/26 05:20:16;;;;;;;;;;;;;;;21.87;30.20;98287.44;5037281;28;1186;-77
2023/09/26 05:22:42;;;;;;;;;;;;;;;21.84;30.08;98286.28;5101574;28;1568;-77
2023/09/26 05:25:08;;;;;;;;;;;;;;;21.97;30.22;98289.22;5076242;28;1230;-77
2023/09/26 05:27:34;;;;;;;;;;;;;;;21.99;30.37;98286.75;5093672;28;2372;-77
2023/09/26 05:29:59;;;;;;;;;;;;;;;21.71;30.64;98286.19;5093487;28;935;-77
2023/09/26 05:32:25;;;;;;;;;;;;;;;21.84;30.78;98284.22;5053137;28;1261;-77
2023/09/26 05:34:51;;;;;;;;;;;;;;;21.85;30.84;98291.50;5020003;28;1006;-77
2023/09/26 05:37:16;;;;;;;;;;;;;;;22.16;30.38;98282.69;5019283;28;1395;-77
2023/09/26 05:39:42;;;;;;;;;;;;;;;21.95;30.66;98294.53;5052865;28;1082;-77
2023/09/26 05:42:10;;;;;;;;;;;;;;;22.18;30.43;98291.59;5036187;28;908;-77
2023/09/26 05:44:35;;;;;;;;;;;;;;;21.73;31.04;98289.34;5019861;28;964;-77
2023/09/26 05:47:01;;;;;;;;;;;;;;;22.12;30.79;98292.53;5039069;28;1980;-77
2023/09/26 05:49:26;;;;;;;;;;;;;;;22.01;31.13;98295.59;5040029;28;954;-77
2023/09/26 05:51:52;;;;;;;;;;;;;;;21.85;31.42;98300.00;5055469;28;1456;-77
2023/09/26 05:54:17;;;;;;;;;;;;;;;21.84;31.77;98301.22;5041161;28;1007;-77
2023/09/26 05:56:44;;;;;;;;;;;;;;;22.13;31.40;98299.81;5051687;28;1016;-77
2023/09/26 05:59:10;;;;;;;;;;;;;;;21.98;31.92;98299.31;5056305;28;1014;-77
2023/09/26 06:01:35;;;;;;;;;;;;;;;22.02;31.79;98294.34;5056783;28;1053;-77
2023/09/26 06:04:01;;;;;;;;;;;;;;;21.84;32.35;98298.41;5068967;28;1059;-77
2023/09/26 06:06:26;;;;;;;;;;;;;;;21.75;32.68;98303.84;5062819;28;1966;-77
2023/09/26 06:08:51;;;;;;;;;;;;;;;21.82;32.24;98298.06;5076783;28;1487;-77
2023/09/26 06:11:17;;;;;;;;;;;;;;;22.03;32.09;98305.25;5099073;28;1259;-77
2023/09/26 06:13:44;;;;;;;;;;;;;;;21.95;32.19;98295.31;5091124;28;950;-77
2023/09/26 06:16:10;;;;;;;;;;;;;;;22.12;31.85;98298.19;5073663;28;1202;-77
2023/09/26 06:18:35;;;;;;;;;;;;;;;22.04;32.39;98301.19;5073938;28;1553;-77
2023/09/26 06:21:08;;;;;;;;;;;;;;;22.16;32.07;98298.91;5075437;28;1334;-77
2023/09/26 06:23:33;;;;;;;;;;;;;;;22.20;32.11;98300.44;5058343;28;904;-77
2023/09/26 06:25:59;;;;;;;;;;;;;;;22.18;32.15;98311.41;5058780;28;1025;-77
2023/09/26 06:28:25;;;;;;;;;;;;;;;22.26;32.09;98307.16;5057107;28;1906;-77
2023/09/26 06:30:50;;;;;;;;;;;;;;;22.10;32.59;98309.94;5096007;28;991;-77
2023/09/26 06:33:16;;;;;;;;;;;;;;;22.04;33.03;98308.88;5078991;28;1066;-77
2023/09/26 06:35:41;;;;;;;;;;;;;;;22.04;32.97;98306.84;5073096;28;1350;-77
2023/09/26 06:38:07;;;;;;;;;;;;;;;22.27;32.23;98310.78;5082298;28;1081;-77
2023/09/26 06:40:32;;;;;;;;;;;;;;;22.02;32.77;98305.69;5099362;28;1280;-77
2023/09/26 06:43:00;;;;;;;;;;;;;;;22.06;32.83;98312.06;5116646;28;1069;-77
2023/09/26 06:45:27;;;;;;;;;;;;;;;21.89;32.79;98304.78;5082668;28;1200;-77
2023/09/26 06:47:53;;;;;;;;;;;;;;;22.00;32.89;98302.50;5099405;28;1979;-77
2023/09/26 06:50:18;;;;;;;;;;;;;;;22.19;32.39;98310.19;5092985;28;1709;-77
2023/09/26 06:52:44;;;;;;;;;;;;;;;22.24;32.39;98315.31;5078956;28;1017;-77
2023/09/26 06:55:12;;;;;;;;;;;;;;;22.28;32.32;98318.88;5062036;28;1299;-77
2023/09/26 06:57:37;;;;;;;;;;;;;;;21.91;32.66;98307.97;5078330;28;1510;-77
2023/09/26 07:00:12;;;;;;;;;;;;;;;22.02;32.91;98305.69;5095614;28;1033;-77
2023/09/26 07:02:38;;;;;;;;;;;;;;;22.19;32.57;98318.69;5045166;28;1157;-77
2023/09/26 07:05:03;;;;;;;;;;;;;;;22.13;32.68;98305.47;5054577;28;1293;-76
2023/09/26 07:07:31;;;;;;;;;;;;;;;22.29;32.37;98311.16;5055481;28;1905;-77
2023/09/26 07:09:58;;;;;;;;;;;;;;;22.05;32.63;98316.16;5038132;28;1184;-77
2023/09/26 07:12:26;;;;;;;;;;;;;;;22.18;32.59;98322.75;5038708;28;1029;-77
2023/09/26 07:14:51;;;;;;;;;;;;;;;22.06;32.56;98317.72;5054666;28;1437;-77
2023/09/26 07:17:17;;;;;;;;;;;;;;;22.16;32.49;98328.06;5057269;28;1434;-77
2023/09/26 07:19:42;;;;;;;;;;;;;;;22.19;32.35;98330.00;5056663;28;1441;-77
2023/09/26 07:22:08;;;;;;;;;;;;;;;22.19;32.48;98327.19;5075128;28;958;-77
2023/09/26 07:24:34;;;;;;;;;;;;;;;22.31;32.08;98332.13;5054687;28;1936;-77
2023/09/26 07:27:00;;;;;;;;;;;;;;;22.17;32.19;98329.63;5054873;28;1910;-77
2023/09/26 07:29:25;;;;;;;;;;;;;;;22.29;31.91;98336.66;5088663;28;962;-77
2023/09/26 07:31:52;;;;;;;;;;;;;;;22.40;31.93;98336.41;5072204;28;985;-77
2023/09/26 07:34:17;;;;;;;;;;;;;;;22.55;31.34;98337.66;5056719;28;916;-77
2023/09/26 07:36:43;;;;;;;;;;;;;;;22.43;31.64;98335.50;5094612;28;1678;-77
2023/09/26 07:39:08;;;;;;;;;;;;;;;22.12;32.11;98338.66;5077059;28;941;-77
2023/09/26 07:41:34;;;;;;;;;;;;;;;22.13;32.25;98340.28;5077100;28;998;-77
2023/09/26 07:43:59;;;;;;;;;;;;;;;22.24;31.73;98352.16;5109283;28;1073;-77
2023/09/26 07:46:25;;;;;;;;;;;;;;;22.31;31.51;98340.66;5077012;28;1971;-77
2023/09/26 07:48:50;;;;;;;;;;;;;;;22.30;31.37;98347.56;5092228;28;1014;-77
2023/09/26 07:51:19;;;;;;;;;;;;;;;22.25;31.40;98348.09;5075801;28;940;-77
2023/09/26 07:53:44;;;;;;;;;;;;;;;22.12;31.51;98350.00;5087124;28;1130;-77
2023/09/26 07:56:10;;;;;;;;;;;;;;;22.31;31.12;98346.31;5057044;28;970;-77
2023/09/26 07:58:35;;;;;;;;;;;;;;;22.31;31.19;98354.81;5061865;28;1383;-77
2023/09/26 08:01:06;;;;;;;;;;;;;;;22.30;31.12;98350.41;5072981;28;1617;-77
2023/09/26 08:03:32;;;;;;;;;;;;;;;22.48;30.61;98349.16;5091038;28;1197;-77
2023/09/26 08:06:07;;;;;;;;;;;;;;;22.19;30.98;98332.84;5109225;28;1010;-77
2023/09/26 08:08:32;;;;;;;;;;;;;;;22.28;30.71;98341.53;5108382;28;915;-77
2023/09/26 08:11:08;;;;;;;;;;;;;;;22.13;30.96;98340.28;5097965;28;1706;-77
2023/09/26 08:13:34;;;;;;;;;;;;;;;22.29;30.95;98337.47;5075969;28;903;-77
2023/09/26 08:15:59;;;;;;;;;;;;;;;22.14;31.24;98344.72;5075226;28;1728;-77
2023/09/26 08:18:25;;;;;;;;;;;;;;;22.24;30.84;98338.00;5092177;28;1078;-77
2023/09/26 08:20:55;;;;;;;;;;;;;;;22.38;30.64;98339.66;5108492;28;951;-77
2023/09/26 08:23:21;;;;;;;;;;;;;;;22.27;30.78;98336.28;5076104;28;930;-78
2023/09/26 08:25:46;;;;;;;;;;;;;;;22.39;30.62;98340.50;5074914;28;999;-77
2023/09/26 08:28:13;;;;;;;;;;;;;;;22.25;31.10;98336.75;5081066;28;1905;-77
2023/09/26 08:30:38;;;;;;;;;;;;;;;22.47;30.72;98342.69;5088714;28;973;-77
2023/09/26 08:33:04;;;;;;;;;;;;;;;22.44;30.64;98348.47;5088778;28;965;-77
2023/09/26 08:35:32;;;;;;;;;;;;;;;22.25;31.13;98341.63;5090075;28;1313;-77
2023/09/26 08:37:58;;;;;;;;;;;;;;;22.26;30.98;98344.00;5071761;28;1139;-77
2023/09/26 08:40:27;;;;;;;;;;;;;;;22.20;31.26;98336.47;5056385;28;1035;-77
2023/09/26 08:42:55;;;;;;;;;;;;;;;22.49;30.63;98336.59;5069845;28;1001;-77
2023/09/26 08:45:20;;;;;;;;;;;;;;;22.36;30.98;98337.28;5020837;28;1183;-77
2023/09/26 08:47:46;;;;;;;;;;;;;;;22.26;31.15;98327.00;5037249;28;1910;-77
2023/09/26 08:50:11;;;;;;;;;;;;;;;22.10;31.41;98335.47;5042014;28;1455;-77
2023/09/26 08:52:37;;;;;;;;;;;;;;;22.39;31.14;98337.66;5057322;28;960;-77
2023/09/26 08:55:03;;;;;;;;;;;;;;;22.61;30.60;98341.53;5057207;28;948;-77
2023/09/26 08:57:29;;;;;;;;;;;;;;;22.49;30.96;98339.44;5057261;28;1089;-77
2023/09/26 08:59:55;;;;;;;;;;;;;;;22.24;31.00;98352.16;5044939;28;1621;-77
2023/09/26 09:02:20;;;;;;;;;;;;;;;22.18;31.29;98348.25;5053733;28;958;-77
2023/09/26 09:04:46;;;;;;;;;;;;;;;22.42;31.12;98331.88;5033646;28;1005;-77
2023/09/26 09:07:12;;;;;;;;;;;;;;;22.44;30.91;98337.13;5033776;28;1993;-72
2023/09/26 09:09:37;;;;;;;;;;;;;;;22.31;31.47;98334.19;5033954;28;936;-77
2023/09/26 09:12:10;;;;;;;;;;;;;;;22.34;31.35;98322.75;5036202;28;1451;-78
2023/09/26 09:14:36;;;;;;;;;;;;;;;22.43;31.01;98329.84;5053013;28;982;-77
2023/09/26 09:17:01;;;;;;;;;;;;;;;22.65;30.73;98330.91;5057018;28;1657;-78
2023/09/26 09:19:45;;;;;;;;;;;;;;;22.74;30.25;98328.25;5073970;28;1326;-77
2023/09/26 09:22:15;;;;;;;;;;;;;;;22.40;31.18;98344.91;5057135;28;1074;-77
2023/09/26 09:24:40;;;;;;;;;;;;;;;22.31;31.35;98349.16;5039768;28;1637;-78
2023/09/26 09:27:06;;;;;;;;;;;;;;;22.33;31.36;98341.03;5040472;28;1903;-78
2023/09/26 09:29:31;;;;;;;;;;;;;;;22.40;31.56;98354.22;5057379;28;939;-77
2023/09/26 09:31:57;;;;;;;;;;;;;;;22.46;31.34;98349.59;5040927;28;990;-77
2023/09/26 09:34:25;;;;;;;;;;;;;;;22.27;31.59;98356.94;5040808;28;966;-78
2023/09/26 09:36:51;;;;;;;;;;;;;;;22.47;31.21;98356.06;5060192;28;990;-78
2023/09/26 09:39:19;;;;;;;;;;;;;;;22.48;30.99;98340.66;5093163;28;1603;-78
2023/09/26 09:41:45;;;;;;;;;;;;;;;22.63;30.80;98339.06;5045495;28;1681;-78
2023/09/26 09:44:10;;;;;;;;;;;;;;;22.47;31.09;98342.69;5094142;28;954;-77
2023/09/26 09:46:38;;;;;;;;;;;;;;;22.42;31.24;98348.09;5093705;28;1967;-77
2023/09/26 09:49:03;;;;;;;;;;;;;;;22.14;31.82;98341.88;5094136;28;1049;-78
2023/09/26 09:51:29;;;;;;;;;;;;;;;22.24;31.82;98346.50;5093588;28;1104;-78
2023/09/26 09:53:55;;;;;;;;;;;;;;;22.56;31.17;98342.06;5044145;28;1233;-78
2023/09/26 09:56:20;;;;;;;;;;;;;;;22.63;31.30;98341.88;5053691;28;1566;-78
2023/09/26 09:58:49;;;;;;;;;;;;;;;22.75;30.89;98337.56;5060025;28;1429;-78
2023/09/26 10:01:16;;;;;;;;;;;;;;;22.55;31.40;98346.16;5056722;28;1192;-78
2023/09/26 10:03:42;;;;;;;;;;;;;;;22.58;30.99;98348.09;5056672;28;1130;-77
2023/09/26 10:06:08;;;;;;;;;;;;;;;22.51;31.33;98348.28;5073669;28;1044;-77
2023/09/26 10:08:34;;;;;;;;;;;;;;;22.55;31.12;98351.84;5056273;28;1973;-78
2023/09/26 10:10:59;;;;;;;;;;;;;;;22.68;31.07;98349.88;5047201;28;1368;-78
2023/09/26 10:13:25;;;;;;;;;;;;;;;22.46;31.13;98345.97;5036792;28;999;-78
2023/09/26 10:16:16;;;;;;;;;;;;;;;22.36;31.67;98354.28;5070063;28;2000;-77
2023/09/26 10:18:43;;;;;;;;;;;;;;;22.48;31.13;98338.59;5036536;28;1118;-78
2023/09/26 10:21:27;;;;;;;;;;;;;;;22.73;30.99;98343.66;5053301;28;1002;-78
2023/09/26 10:24:08;;;;;;;;;;;;;;;22.70;30.81;98338.88;5074331;28;1182;-77
2023/09/26 10:26:47;;;;;;;;;;;;;;;22.55;31.23;98354.66;5073164;28;1984;-77
2023/09/26 10:29:25;;;;;;;;;;;;;;;22.55;31.04;98343.31;5078904;28;901;-77
2023/09/26 10:31:55;;;;;;;;;;;;;;;22.61;31.03;98352.88;5076776;28;1679;-78
2023/09/26 10:34:25;;;;;;;;;;;;;;;22.85;30.44;98351.47;5078639;28;1073;-77
2023/09/26 10:36:53;;;;;;;;;;;;;;;22.55;31.12;98349.78;5110966;28;956;-77
2023/09/26 10:39:18;;;;;;;;;;;;;;;22.78;30.68;98343.13;5077570;28;965;-77
2023/09/26 10:41:44;;;;;;;;;;;;;;;22.71;30.77;98346.16;5073485;28;1514;-77
2023/09/26 10:44:10;;;;;;;;;;;;;;;22.57;31.05;98340.84;5057045;28;1094;-77
2023/09/26 10:46:35;;;;;;;;;;;;;;;22.40;31.07;98353.41;5057209;28;1906;-77
2023/09/26 10:49:01;;;;;;;;;;;;;;;22.24;31.29;98357.84;5057460;28;1049;-77
2023/09/26 10:51:26;;;;;;;;;;;;;;;22.58;30.90;98360.22;5058392;28;909;-78
2023/09/26 10:53:52;;;;;;;;;;;;;;;22.52;30.85;98347.03;5057946;28;985;-78
2023/09/26 10:56:17;;;;;;;;;;;;;;;22.44;31.02;98337.13;5056632;28;1314;-78
2023/09/26 10:58:46;;;;;;;;;;;;;;;22.54;30.85;98347.41;5104216;28;1417;-78
2023/09/26 11:01:12;;;;;;;;;;;;;;;22.52;31.17;98349.88;5091262;28;1420;-78
2023/09/26 11:03:37;;;;;;;;;;;;;;;22.56;31.08;98339.25;5057116;28;888;-77
2023/09/26 11:06:04;;;;;;;;;;;;;;;22.56;31.12;98339.25;5056731;28;878;-78
2023/09/26 11:08:29;;;;;;;;;;;;;;;22.44;31.25;98337.91;5056936;28;1981;-77
2023/09/26 11:10:55;;;;;;;;;;;;;;;22.67;30.75;98342.59;5040050;28;1446;-78
2023/09/26 11:13:24;;;;;;;;;;;;;;;22.69;30.60;98354.31;5056666;28;927;-78
2023/09/26 11:15:53;;;;;;;;;;;;;;;22.70;30.60;98350.22;5039828;28;1526;-78
2023/09/26 11:18:18;;;;;;;;;;;;;;;22.82;30.16;98343.81;5078705;28;1217;-78
2023/09/26 11:20:44;;;;;;;;;;;;;;;22.72;30.58;98350.56;5095683;28;956;-78
2023/09/26 11:23:09;;;;;;;;;;;;;;;22.36;31.00;98345.78;5038621;28;953;-78
2023/09/26 11:25:35;;;;;;;;;;;;;;;22.46;30.91;98357.31;5054994;28;1259;-77
2023/09/26 11:28:00;;;;;;;;;;;;;;;22.71;30.23;98340.47;5035007;28;1910;-77
2023/09/26 11:30:26;;;;;;;;;;;;;;;22.53;30.79;98340.13;4994933;28;1376;-78
2023/09/26 11:32:54;;;;;;;;;;;;;;;22.67;30.45;98345.44;5014976;28;945;-77
2023/09/26 11:35:22;;;;;;;;;;;;;;;22.41;30.77;98323.81;4998718;28;1169;-77
2023/09/26 11:37:52;;;;;;;;;;;;;;;22.27;31.15;98334.25;4982445;28;1343;-77
2023/09/26 11:40:22;;;;;;;;;;;;;;;22.62;30.13;98324.06;4986204;28;1444;-77
2023/09/26 11:42:51;;;;;;;;;;;;;;;22.74;30.08;98325.41;5014519;28;975;-77
2023/09/26 11:45:23;;;;;;;;;;;;;;;22.65;30.32;98330.91;4998918;28;1094;-77
2023/09/26 11:47:49;;;;;;;;;;;;;;;22.56;30.47;98317.34;4998227;28;1906;-77
2023/09/26 11:50:15;;;;;;;;;;;;;;;22.44;30.71;98320.13;4962476;28;1466;-78
2023/09/26 11:52:41;;;;;;;;;;;;;;;22.42;30.75;98328.25;4940649;29;1243;-77
2023/09/26 11:55:06;;;;;;;;;;;;;;;22.32;31.03;98327.25;4992434;28;1123;-78
2023/09/26 11:57:35;;;;;;;;;;;;;;;22.32;31.02;98324.44;4989967;28;1557;-78
2023/09/26 12:00:00;;;;;;;;;;;;;;;22.14;31.30;98329.75;5027521;28;1662;-78
2023/09/26 12:02:26;;;;;;;;;;;;;;;22.63;30.66;98313.53;5017810;28;1763;-77
2023/09/26 12:04:52;;;;;;;;;;;;;;;22.55;30.69;98312.13;5050753;28;886;-78
2023/09/26 12:07:17;;;;;;;;;;;;;;;22.61;30.42;98307.50;5058514;28;1969;-78
2023/09/26 12:09:44;;;;;;;;;;;;;;;22.28;31.18;98318.88;5089315;28;871;-78
2023/09/26 12:12:09;;;;;;;;;;;;;;;22.48;30.92;98324.44;5038832;28;1133;-78
2023/09/26 12:14:35;;;;;;;;;;;;;;;22.27;31.35;98311.56;5056524;28;1596;-77
2023/09/26 12:17:01;;;;;;;;;;;;;;;22.47;31.02;98314.34;5058730;28;917;-77
2023/09/26 12:19:27;;;;;;;;;;;;;;;22.24;31.35;98312.47;5058970;28;1172;-78
2023/09/26 12:21:53;;;;;;;;;;;;;;;22.21;31.58;98304.84;5075333;28;1156;-77
2023/09/26 12:24:18;;;;;;;;;;;;;;;22.30;31.49;98309.91;5036994;28;972;-77
2023/09/26 12:26:45;;;;;;;;;;;;;;;22.45;30.75;98304.69;5033859;28;1975;-78
2023/09/26 12:29:11;;;;;;;;;;;;;;;22.38;30.84;98310.53;5033925;28;1781;-77
2023/09/26 12:31:36;;;;;;;;;;;;;;;22.63;30.61;98299.34;5017592;28;974;-78
2023/09/26 12:34:02;;;;;;;;;;;;;;;22.46;30.86;98317.63;5017564;28;1313;-78
2023/09/26 12:36:28;;;;;;;;;;;;;;;22.61;30.51;98307.50;5034311;28;981;-77
2023/09/26 12:38:54;;;;;;;;;;;;;;;22.41;31.00;98312.47;5000999;28;855;-78
2023/09/26 12:41:19;;;;;;;;;;;;;;;22.50;30.62;98309.81;5017513;28;1451;-77
2023/09/26 12:43:45;;;;;;;;;;;;;;;22.49;30.47;98309.03;5034555;28;1228;-77
2023/09/26 12:46:10;;;;;;;;;;;;;;;22.39;30.99;98312.13;5001326;28;1548;-77
2023/09/26 12:48:36;;;;;;;;;;;;;;;22.27;30.96;98305.91;5017111;28;1985;-78
2023/09/26 12:51:01;;;;;;;;;;;;;;;22.19;31.35;98310.19;5017666;28;1576;-77
2023/09/26 12:53:27;;;;;;;;;;;;;;;22.23;31.33;98304.44;5017305;28;1133;-77
2023/09/26 12:55:54;;;;;;;;;;;;;;;22.43;30.84;98312.81;5034715;28;994;-77